createdAt,value
2018-04-14T00:00:34.346Z,94.80
2018-04-14T00:03:02.608Z,94.80
2018-04-14T00:05:31.394Z,94.80
2018-04-14T00:07:59.488Z,95.10
2018-04-14T00:10:27.543Z,95.60
2018-04-14T00:12:55.672Z,95.80
2018-04-14T00:15:23.688Z,96.00
2018-04-14T00:17:52.541Z,96.60
2018-04-14T00:20:21.365Z,96.70
2018-04-14T00:22:49.476Z,96.60
2018-04-14T00:25:17.597Z,96.50
2018-04-14T00:27:46.474Z,96.60
2018-04-14T00:30:14.567Z,95.80
2018-04-14T00:32:42.614Z,96.10
2018-04-14T00:35:11.461Z,95.90
2018-04-14T00:37:39.501Z,95.70
2018-04-14T00:40:07.569Z,96.00
2018-04-14T00:42:35.651Z,95.70
2018-04-14T00:45:03.728Z,95.60
2018-04-14T00:47:31.774Z,95.60
2018-04-14T00:49:59.862Z,95.70
2018-04-14T00:52:27.906Z,95.50
2018-04-14T00:54:55.984Z,95.40
2018-04-14T00:57:24.855Z,95.60
2018-04-14T00:59:53.692Z,95.40
2018-04-14T01:02:21.785Z,95.10
2018-04-14T01:04:49.850Z,95.10
2018-04-14T01:07:17.924Z,94.90
2018-04-14T01:09:46.012Z,94.90
2018-04-14T01:12:14.063Z,94.40
2018-04-14T01:14:42.196Z,94.50
2018-04-14T01:17:10.264Z,94.10
2018-04-14T01:19:39.064Z,94.40
2018-04-14T01:22:07.901Z,94.40
2018-04-14T01:24:35.950Z,94.00
2018-04-14T01:27:04.062Z,93.70
2018-04-14T01:29:32.109Z,93.80
2018-04-14T01:32:00.188Z,93.90
2018-04-14T01:34:28.246Z,93.80
2018-04-14T01:36:57.876Z,93.60
2018-04-14T01:39:25.954Z,93.40
2018-04-14T01:41:54.793Z,93.70
2018-04-14T01:44:22.873Z,93.40
2018-04-14T01:46:50.888Z,93.40
2018-04-14T01:49:18.985Z,93.20
2018-04-14T01:51:47.031Z,93.30
2018-04-14T01:54:15.874Z,93.20
2018-04-14T01:56:43.935Z,93.00
2018-04-14T01:59:12.077Z,93.20
2018-04-14T02:01:40.115Z,93.00
2018-04-14T02:04:08.201Z,92.80
2018-04-14T02:06:36.251Z,93.00
2018-04-14T02:09:04.325Z,92.60
2018-04-14T02:11:32.376Z,92.60
2018-04-14T02:14:00.458Z,92.90
2018-04-14T02:16:28.509Z,92.60
2018-04-14T02:18:56.599Z,92.50
2018-04-14T02:21:24.689Z,92.50
2018-04-14T02:23:52.733Z,92.50
2018-04-14T02:26:20.819Z,92.60
2018-04-14T02:28:49.734Z,92.40
2018-04-14T02:31:17.793Z,92.60
2018-04-14T02:33:45.874Z,92.40
2018-04-14T02:36:13.924Z,92.20
2018-04-14T02:38:41.968Z,92.40
2018-04-14T02:41:10.059Z,92.20
2018-04-14T02:43:38.930Z,92.10
2018-04-14T02:46:06.962Z,91.90
2018-04-14T02:48:35.012Z,91.90
2018-04-14T02:51:03.099Z,91.80
2018-04-14T02:53:31.131Z,91.90
2018-04-14T02:55:59.216Z,91.70
2018-04-14T02:58:28.795Z,92.50
2018-04-14T03:00:56.907Z,91.90
2018-04-14T03:03:24.987Z,91.90
2018-04-14T03:05:53.066Z,91.90
2018-04-14T03:08:21.885Z,92.30
2018-04-14T03:10:49.925Z,92.00
2018-04-14T03:13:18.782Z,92.10
2018-04-14T03:15:46.833Z,91.80
2018-04-14T03:18:14.887Z,91.80
2018-04-14T03:20:42.933Z,91.90
2018-04-14T03:23:11.737Z,92.20
2018-04-14T03:25:39.781Z,92.50
2018-04-14T03:28:08.630Z,92.30
2018-04-14T03:30:36.724Z,92.20
2018-04-14T03:33:04.766Z,92.10
2018-04-14T03:35:32.811Z,92.20
2018-04-14T03:38:00.903Z,92.10
2018-04-14T03:42:58.337Z,92.20
2018-04-14T03:45:27.181Z,92.40
2018-04-14T03:47:55.261Z,92.30
2018-04-14T03:50:23.379Z,92.30
2018-04-14T03:52:52.192Z,92.60
2018-04-14T03:55:20.364Z,92.60
2018-04-14T03:57:49.158Z,92.60
2018-04-14T04:00:17.238Z,92.30
2018-04-14T04:02:45.306Z,92.20
2018-04-14T04:05:13.398Z,92.30
2018-04-14T04:07:41.455Z,92.20
2018-04-14T04:10:10.214Z,92.30
2018-04-14T04:12:38.279Z,92.30
2018-04-14T04:15:07.099Z,92.60
2018-04-14T04:17:35.162Z,92.30
2018-04-14T04:20:15.322Z,92.40
2018-04-14T04:22:55.111Z,92.30
2018-04-14T04:25:39.822Z,92.30
2018-04-14T04:28:07.926Z,92.40
2018-04-14T04:30:36.048Z,92.40
2018-04-14T04:33:04.079Z,92.40
2018-04-14T04:35:32.110Z,92.30
2018-04-14T04:38:00.162Z,92.30
2018-04-14T04:40:28.207Z,92.40
2018-04-14T04:42:57.053Z,92.50
2018-04-14T04:45:25.127Z,92.30
2018-04-14T04:47:53.195Z,92.30
2018-04-14T04:50:21.261Z,92.30
2018-04-14T04:52:49.365Z,92.50
2018-04-14T04:55:17.417Z,92.60
2018-04-14T04:57:45.459Z,92.30
2018-04-14T05:00:13.546Z,92.30
2018-04-14T05:02:42.325Z,92.50
2018-04-14T05:05:11.406Z,92.40
2018-04-14T05:07:39.494Z,92.60
2018-04-14T05:10:07.547Z,92.60
2018-04-14T05:12:36.356Z,92.30
2018-04-14T05:15:04.416Z,92.00
2018-04-14T05:17:32.472Z,92.00
2018-04-14T05:20:01.280Z,92.30
2018-04-14T05:22:29.368Z,92.00
2018-04-14T05:24:58.130Z,92.20
2018-04-14T05:27:26.191Z,92.00
2018-04-14T05:29:55.030Z,92.00
2018-04-14T05:32:23.109Z,91.70
2018-04-14T05:34:51.151Z,91.80
2018-04-14T05:37:19.206Z,91.90
2018-04-14T05:39:48.043Z,92.00
2018-04-14T05:42:16.132Z,91.70
2018-04-14T05:44:44.202Z,91.80
2018-04-14T05:47:12.731Z,91.70
2018-04-14T05:49:41.505Z,91.70
2018-04-14T05:52:09.571Z,91.60
2018-04-14T05:54:38.390Z,91.70
2018-04-14T05:57:06.473Z,91.30
2018-04-14T05:59:34.612Z,91.30
2018-04-14T06:02:02.628Z,91.20
2018-04-14T06:04:31.453Z,90.90
2018-04-14T06:07:00.285Z,91.10
2018-04-14T06:09:28.369Z,90.40
2018-04-14T06:11:56.443Z,90.40
2018-04-14T06:14:24.513Z,89.90
2018-04-14T06:16:52.566Z,89.40
2018-04-14T06:19:20.614Z,89.30
2018-04-14T06:21:48.674Z,88.80
2018-04-14T06:24:17.532Z,88.40
2018-04-14T06:26:45.581Z,88.60
2018-04-14T06:29:13.716Z,87.90
2018-04-14T06:31:41.759Z,87.60
2018-04-14T06:34:09.832Z,87.70
2018-04-14T06:36:37.914Z,87.80
2018-04-14T06:39:07.151Z,88.10
2018-04-14T06:41:35.570Z,87.10
2018-04-14T06:44:03.723Z,87.20
2018-04-14T06:46:32.503Z,87.40
2018-04-14T06:49:00.596Z,87.60
2018-04-14T06:51:29.045Z,88.40
2018-04-14T06:53:57.098Z,88.60
2018-04-14T06:56:25.188Z,88.60
2018-04-14T06:58:53.980Z,88.90
2018-04-14T07:01:21.993Z,89.00
2018-04-14T07:03:50.442Z,89.10
2018-04-14T07:06:21.513Z,89.30
2018-04-14T07:08:49.580Z,88.60
2018-04-14T07:11:17.653Z,88.70
2018-04-14T07:13:45.829Z,88.70
2018-04-14T07:16:17.797Z,88.80
2018-04-14T07:18:46.277Z,88.60
2018-04-14T07:21:25.753Z,88.50
2018-04-14T07:24:12.714Z,88.30
2018-04-14T07:26:41.662Z,88.80
2018-04-14T07:32:02.021Z,87.70
2018-04-14T07:34:34.026Z,85.10
2018-04-14T07:37:04.510Z,81.70
2018-04-14T07:39:32.573Z,80.00
2018-04-14T07:42:01.382Z,77.50
2018-04-14T07:44:30.362Z,75.10
2018-04-14T07:46:59.225Z,72.40
2018-04-14T07:49:27.271Z,69.80
2018-04-14T07:51:55.345Z,69.10
2018-04-14T07:54:23.439Z,64.30
2018-04-14T07:56:51.585Z,62.60
2018-04-14T07:59:24.570Z,61.80
2018-04-14T08:01:53.394Z,62.00
2018-04-14T08:04:21.485Z,57.40
2018-04-14T08:06:50.404Z,54.10
2018-04-14T08:09:18.461Z,51.80
2018-04-14T08:11:46.529Z,52.50
2018-04-14T08:14:14.578Z,53.20
2018-04-14T08:16:42.637Z,51.30
2018-04-14T08:19:10.713Z,50.70
2018-04-14T08:21:38.763Z,48.90
2018-04-14T08:24:06.823Z,49.60
2018-04-14T08:26:34.922Z,51.90
2018-04-14T08:29:02.949Z,50.10
2018-04-14T08:31:31.801Z,52.00
2018-04-14T08:34:00.630Z,53.30
2018-04-14T08:36:30.389Z,56.80
2018-04-14T08:38:58.429Z,58.10
2018-04-14T08:41:26.920Z,57.50
2018-04-14T08:43:54.993Z,55.60
2018-04-14T08:46:23.066Z,52.30
2018-04-14T08:48:51.144Z,41.10
2018-04-14T08:51:19.232Z,36.90
2018-04-14T08:53:47.717Z,34.20
2018-04-14T08:56:16.538Z,34.40
2018-04-14T08:58:45.420Z,34.80
2018-04-14T09:01:13.906Z,34.60
2018-04-14T09:03:45.483Z,32.80
2018-04-14T09:06:14.341Z,34.10
2018-04-14T09:08:42.380Z,33.90
2018-04-14T09:11:10.538Z,36.00
2018-04-14T09:13:38.597Z,37.90
2018-04-14T09:16:06.692Z,41.80
2018-04-14T09:18:35.530Z,46.10
2018-04-14T09:21:04.363Z,48.40
2018-04-14T09:23:32.405Z,50.30
2018-04-14T09:26:01.254Z,50.70
2018-04-14T09:28:29.594Z,49.40
2018-04-14T09:30:58.548Z,48.00
2018-04-14T09:33:27.361Z,48.70
2018-04-14T09:35:55.459Z,48.10
2018-04-14T09:38:23.516Z,48.70
2018-04-14T09:40:51.603Z,50.20
2018-04-14T09:43:20.797Z,50.80
2018-04-14T09:45:48.897Z,48.10
2018-04-14T09:48:16.918Z,48.50
2018-04-14T09:50:45.754Z,50.60
2018-04-14T09:53:13.830Z,50.80
2018-04-14T09:55:41.893Z,52.10
2018-04-14T09:58:09.984Z,53.80
2018-04-14T10:00:43.847Z,54.50
2018-04-14T10:03:17.941Z,54.30
2018-04-14T10:05:46.770Z,53.40
2018-04-14T10:08:14.845Z,52.00
2018-04-14T10:10:43.755Z,49.80
2018-04-14T10:13:11.826Z,46.40
2018-04-14T10:15:39.892Z,41.60
2018-04-14T10:18:07.937Z,38.00
2018-04-14T10:20:36.017Z,36.90
2018-04-14T10:23:04.087Z,37.90
2018-04-14T10:25:32.185Z,38.40
2018-04-14T10:28:00.316Z,41.20
2018-04-14T10:30:29.491Z,41.60
2018-04-14T10:32:57.621Z,42.10
2018-04-14T10:35:25.680Z,40.80
2018-04-14T10:37:53.882Z,38.80
2018-04-14T10:40:24.169Z,39.20
2018-04-14T10:42:53.391Z,37.30
2018-04-14T10:45:22.987Z,38.10
2018-04-14T10:47:53.913Z,37.60
2018-04-14T10:50:23.521Z,37.30
2018-04-14T10:52:54.028Z,36.70
2018-04-14T10:55:22.906Z,37.50
2018-04-14T10:57:52.886Z,37.50
2018-04-14T11:00:21.633Z,39.70
2018-04-14T11:02:50.757Z,40.40
2018-04-14T11:05:20.475Z,42.20
2018-04-14T11:07:48.587Z,41.80
2018-04-14T11:10:17.229Z,41.20
2018-04-14T11:12:45.325Z,41.30
2018-04-14T11:15:14.166Z,40.60
2018-04-14T11:17:42.197Z,40.20
2018-04-14T11:20:11.039Z,41.20
2018-04-14T11:22:42.050Z,40.50
2018-04-14T11:25:10.984Z,40.40
2018-04-14T11:27:41.050Z,40.90
2018-04-14T11:30:11.020Z,42.40
2018-04-14T11:32:40.832Z,44.50
2018-04-14T11:35:09.071Z,44.80
2018-04-14T11:37:41.273Z,45.50
2018-04-14T11:40:12.412Z,45.80
2018-04-14T11:42:40.906Z,45.60
2018-04-14T11:45:12.091Z,45.10
2018-04-14T11:47:42.343Z,43.30
2018-04-14T11:50:10.407Z,42.50
2018-04-14T11:52:40.201Z,42.40
2018-04-14T11:55:09.192Z,40.60
2018-04-14T12:00:57.198Z,42.60
2018-04-14T12:03:26.575Z,43.60
2018-04-14T12:05:54.608Z,43.50
2018-04-14T12:08:23.453Z,43.70
2018-04-14T12:10:52.525Z,44.50
2018-04-14T12:13:21.121Z,45.00
2018-04-14T12:15:49.174Z,44.60
2018-04-14T12:18:18.252Z,42.00
2018-04-14T12:20:47.085Z,42.80
2018-04-14T12:23:15.162Z,42.80
2018-04-14T12:25:43.228Z,42.80
2018-04-14T12:28:11.289Z,42.80
2018-04-14T12:30:39.420Z,42.40
2018-04-14T12:33:07.421Z,42.80
2018-04-14T12:35:35.502Z,41.70
2018-04-14T12:38:03.575Z,42.60
2018-04-14T12:40:31.662Z,42.20
2018-04-14T12:42:59.733Z,42.10
2018-04-14T12:45:27.798Z,41.50
2018-04-14T12:47:56.410Z,41.60
2018-04-14T12:50:25.246Z,42.00
2018-04-14T12:52:53.323Z,42.10
2018-04-14T12:55:21.396Z,42.70
2018-04-14T12:57:50.200Z,43.00
2018-04-14T13:00:18.429Z,43.10
2018-04-14T13:02:47.286Z,44.20
2018-04-14T13:05:15.389Z,44.10
2018-04-14T13:07:43.874Z,44.10
2018-04-14T13:10:12.682Z,44.90
2018-04-14T13:12:41.351Z,44.90
2018-04-14T13:15:10.186Z,45.50
2018-04-14T13:17:38.285Z,44.90
2018-04-14T13:20:07.126Z,45.90
2018-04-14T13:22:35.185Z,45.80
2018-04-14T13:25:06.238Z,45.20
2018-04-14T13:27:34.708Z,44.40
2018-04-14T13:30:04.269Z,44.50
2018-04-14T13:32:34.597Z,44.30
2018-04-14T13:35:06.351Z,44.50
2018-04-14T13:37:34.431Z,44.30
2018-04-14T13:40:02.938Z,44.40
2018-04-14T13:42:31.010Z,44.30
2018-04-14T13:44:59.080Z,44.60
2018-04-14T13:47:27.146Z,45.10
2018-04-14T13:49:55.214Z,45.30
2018-04-14T13:52:24.139Z,46.40
2018-04-14T13:55:08.279Z,45.70
2018-04-14T13:57:52.198Z,46.20
2018-04-14T14:00:35.193Z,46.80
2018-04-14T14:03:19.318Z,48.00
2018-04-14T14:06:02.285Z,47.20
2018-04-14T14:08:45.265Z,47.30
2018-04-14T14:11:28.433Z,48.00
2018-04-14T14:14:11.402Z,48.60
2018-04-14T14:16:54.436Z,48.60
2018-04-14T14:19:38.232Z,49.50
2018-04-14T14:22:21.179Z,49.10
2018-04-14T14:25:04.164Z,49.50
2018-04-14T14:27:47.183Z,49.60
2018-04-14T14:30:30.190Z,51.30
2018-04-14T14:33:14.012Z,50.80
2018-04-14T14:35:56.987Z,50.80
2018-04-14T14:38:40.791Z,50.80
2018-04-14T14:41:23.790Z,50.50
2018-04-14T14:44:07.500Z,50.80
2018-04-14T14:46:51.337Z,51.20
2018-04-14T14:49:34.314Z,50.50
2018-04-14T14:52:17.286Z,50.90
2018-04-14T14:55:00.294Z,51.60
2018-04-14T14:57:44.035Z,51.80
2018-04-14T15:00:27.814Z,51.70
2018-04-14T15:03:10.787Z,51.30
2018-04-14T15:05:53.811Z,51.70
2018-04-14T15:08:37.525Z,52.40
2018-04-14T15:11:20.535Z,50.80
2018-04-14T15:14:03.718Z,51.30
2018-04-14T15:16:46.693Z,50.40
2018-04-14T15:19:29.652Z,51.40
2018-04-14T15:22:12.658Z,52.00
2018-04-14T15:24:56.413Z,53.10
2018-04-14T15:27:40.215Z,53.00
2018-04-14T15:30:23.184Z,53.30
2018-04-14T15:33:06.191Z,53.90
2018-04-14T15:35:49.918Z,54.50
2018-04-14T15:38:33.705Z,54.90
2018-04-14T15:41:16.671Z,55.40
2018-04-14T15:44:00.460Z,55.30
2018-04-14T15:46:44.632Z,54.90
2018-04-14T15:49:27.607Z,55.50
2018-04-14T15:52:10.627Z,55.50
2018-04-14T15:57:37.994Z,56.20
2018-04-14T16:00:20.948Z,57.10
2018-04-14T16:03:04.699Z,57.60
2018-04-14T16:05:47.671Z,58.20
2018-04-14T16:08:31.436Z,58.70
2018-04-14T16:11:16.237Z,58.40
2018-04-14T16:13:59.267Z,58.20
2018-04-14T16:16:42.215Z,58.20
2018-04-14T16:22:09.496Z,58.70
2018-04-14T16:24:53.604Z,59.40
2018-04-14T16:27:37.027Z,59.60
2018-04-14T16:30:20.008Z,59.80
2018-04-14T16:33:03.339Z,60.00
2018-04-14T16:35:46.681Z,60.30
2018-04-14T16:38:31.186Z,60.30
2018-04-14T16:41:15.945Z,61.30
2018-04-14T16:43:58.946Z,61.40
2018-04-14T16:46:41.917Z,61.60
2018-04-14T16:49:24.937Z,61.90
2018-04-14T16:52:08.711Z,62.90
2018-04-14T16:54:51.681Z,62.70
2018-04-14T16:57:35.407Z,62.40
2018-04-14T17:00:18.458Z,62.80
2018-04-14T17:03:01.479Z,63.10
2018-04-14T17:05:44.512Z,63.90
2018-04-14T17:08:27.483Z,63.00
2018-04-14T17:11:12.205Z,63.30
2018-04-14T17:13:55.816Z,63.90
2018-04-14T17:16:39.628Z,64.70
2018-04-14T17:19:22.601Z,64.40
2018-04-14T17:22:05.592Z,64.90
2018-04-14T17:24:49.411Z,65.50
2018-04-14T17:27:32.357Z,65.00
2018-04-14T17:30:16.093Z,65.70
2018-04-14T17:32:59.834Z,66.00
2018-04-14T17:35:43.620Z,66.60
2018-04-14T17:38:27.404Z,65.90
2018-04-14T17:41:12.351Z,66.50
2018-04-14T17:43:55.749Z,66.30
2018-04-14T17:46:42.114Z,66.30
2018-04-14T17:49:25.902Z,67.30
2018-04-14T17:52:09.736Z,67.00
2018-04-14T17:54:53.112Z,67.30
2018-04-14T17:57:36.126Z,67.80
2018-04-14T18:00:19.215Z,68.30
2018-04-14T18:03:02.853Z,69.00
2018-04-14T18:05:45.834Z,68.70
2018-04-14T18:08:29.224Z,68.30
2018-04-14T18:11:12.206Z,68.70
2018-04-14T18:13:55.740Z,69.20
2018-04-14T18:16:39.016Z,69.70
2018-04-14T18:19:22.091Z,70.30
2018-04-14T18:22:05.945Z,70.00
2018-04-14T18:24:48.911Z,69.20
2018-04-14T18:27:31.881Z,69.30
2018-04-14T18:30:15.666Z,69.50
2018-04-14T18:32:59.111Z,69.40
2018-04-14T18:35:43.247Z,69.10
2018-04-14T18:38:26.303Z,69.40
2018-04-14T18:41:10.915Z,69.30
2018-04-14T18:43:54.498Z,69.90
2018-04-14T18:46:37.490Z,69.80
2018-04-14T18:49:21.233Z,71.00
2018-04-14T18:52:05.029Z,71.30
2018-04-14T18:54:49.609Z,71.30
2018-04-14T18:57:32.611Z,71.40
2018-04-14T19:00:16.790Z,71.40
2018-04-14T19:03:01.920Z,71.40
2018-04-14T19:05:45.646Z,72.20
2018-04-14T19:08:28.874Z,71.40
2018-04-14T19:11:12.604Z,72.30
2018-04-14T19:13:55.577Z,71.90
2018-04-14T19:16:38.590Z,72.10
2018-04-14T19:19:21.658Z,72.00
2018-04-14T19:22:05.062Z,71.90
2018-04-14T19:24:49.709Z,72.10
2018-04-14T19:27:32.945Z,72.20
2018-04-14T19:30:16.114Z,72.80
2018-04-14T19:32:59.115Z,72.60
2018-04-14T19:35:42.761Z,72.90
2018-04-14T19:38:25.744Z,72.90
2018-04-14T19:41:08.978Z,73.40
2018-04-14T19:43:52.865Z,73.50
2018-04-14T19:46:36.785Z,74.00
2018-04-14T19:52:04.521Z,73.30
2018-04-14T19:54:47.502Z,73.40
2018-04-14T19:57:30.507Z,73.80
2018-04-14T20:00:14.443Z,74.20
2018-04-14T20:02:57.382Z,73.90
2018-04-14T20:05:41.130Z,74.50
2018-04-14T20:08:24.511Z,74.20
2018-04-14T20:11:07.511Z,74.50
2018-04-14T20:16:34.767Z,75.20
2018-04-14T20:19:17.770Z,75.40
2018-04-14T20:22:00.765Z,75.60
2018-04-14T20:24:43.739Z,75.40
2018-04-14T20:27:26.728Z,75.20
2018-04-14T20:30:10.484Z,75.80
2018-04-14T20:32:53.470Z,75.60
2018-04-14T20:35:36.430Z,76.00
2018-04-14T20:38:19.422Z,76.20
2018-04-14T20:41:03.952Z,76.30
2018-04-14T20:43:46.894Z,76.90
2018-04-14T20:46:31.061Z,76.70
2018-04-14T20:49:14.039Z,77.50
2018-04-14T20:51:56.990Z,78.60
2018-04-14T20:54:41.925Z,79.60
2018-04-14T20:57:25.300Z,79.40
2018-04-14T21:00:08.310Z,79.40
2018-04-14T21:02:52.070Z,80.10
2018-04-14T21:05:35.067Z,80.00
2018-04-14T21:08:18.826Z,80.80
2018-04-14T21:11:01.819Z,80.10
2018-04-14T21:13:44.824Z,80.20
2018-04-14T21:16:27.837Z,80.20
2018-04-14T21:19:10.837Z,79.90
2018-04-14T21:21:55.474Z,80.40
2018-04-14T21:24:39.194Z,80.50
2018-04-14T21:27:22.966Z,80.70
2018-04-14T21:30:05.969Z,79.60
2018-04-14T21:32:48.948Z,79.90
2018-04-14T21:35:31.956Z,80.70
2018-04-14T21:38:15.686Z,80.20
2018-04-14T21:40:58.675Z,80.60
2018-04-14T21:43:41.654Z,81.10
2018-04-14T21:46:24.658Z,81.30
2018-04-14T21:49:07.623Z,81.30
2018-04-14T21:54:34.840Z,81.70
2018-04-14T21:57:17.813Z,81.90
2018-04-14T22:00:01.593Z,82.30
2018-04-14T22:02:44.561Z,81.90
2018-04-14T22:05:27.545Z,81.90
2018-04-14T22:08:10.507Z,82.00
2018-04-14T22:10:55.015Z,82.30
2018-04-14T22:13:37.982Z,82.70
2018-04-14T22:16:21.733Z,83.40
2018-04-14T22:19:05.473Z,83.50
2018-04-14T22:21:49.990Z,83.80
2018-04-14T22:24:32.958Z,83.70
2018-04-14T22:27:16.737Z,83.80
2018-04-14T22:29:59.743Z,83.70
2018-04-14T22:32:42.739Z,83.20
2018-04-14T22:35:26.477Z,83.40
2018-04-14T22:38:09.461Z,83.40
2018-04-14T22:40:52.480Z,83.40
2018-04-14T22:43:35.469Z,83.60
2018-04-14T22:46:20.288Z,83.60
2018-04-14T22:49:03.252Z,81.30
2018-04-14T22:51:46.252Z,84.00
2018-04-14T22:54:30.000Z,83.90
2018-04-14T22:57:12.972Z,84.10
2018-04-14T22:59:56.347Z,84.50
2018-04-14T23:02:39.333Z,84.80
2018-04-14T23:05:22.305Z,85.20
2018-04-14T23:08:05.690Z,85.00
2018-04-14T23:10:49.450Z,85.70
2018-04-14T23:13:35.417Z,85.30
2018-04-14T23:16:18.409Z,84.70
2018-04-14T23:19:01.388Z,84.80
2018-04-14T23:21:44.369Z,84.80
2018-04-14T23:24:27.342Z,84.80
2018-04-14T23:27:10.360Z,84.90
2018-04-14T23:29:53.331Z,84.60
2018-04-14T23:32:36.320Z,84.20
2018-04-14T23:35:21.027Z,84.70
2018-04-14T23:38:05.543Z,85.10
2018-04-14T23:40:48.518Z,84.50
2018-04-14T23:43:32.266Z,85.00
2018-04-14T23:46:15.254Z,84.50
2018-04-14T23:48:58.275Z,84.70
2018-04-14T23:51:41.234Z,84.90
2018-04-14T23:54:24.202Z,85.00
2018-04-14T23:57:07.174Z,85.30
2018-04-14T23:59:50.169Z,85.80
